Time;durP1;ratioP1;P1;durP2;ratioP2;P2;SDS_P1;SDS_P2;PMS_P1;PMS_P2;Temp;Humidity;BMP_temperature;BMP_pressure;BME280_temperature;BME280_humidity;BME280_pressure;Samples;Min_cycle;Max_cycle;Signal;HPM_P1;HPM_P2
2020/12/26 00:02:31;;;;;;;5.73;2.90;;;;;;;-1.45;100.00;98880.03;3563326;82;44098;-16
2020/12/26 00:07:37;;;;;;;5.90;2.97;;;;;;;-1.52;100.00;98887.87;3704495;78;44039;-16
2020/12/26 00:12:43;;;;;;;6.23;3.10;;;;;;;-1.49;100.00;98877.17;3701461;78;44172;-16
2020/12/26 00:17:49;;;;;;;5.37;3.50;;;;;;;-1.52;100.00;98878.63;3700049;78;44058;-16
2020/12/26 00:22:56;;;;;;;6.20;3.30;;;;;;;-1.58;100.00;98870.05;3656167;80;43674;-16
2020/12/26 00:28:02;;;;;;;9.47;4.00;;;;;;;-1.63;100.00;98873.40;3695553;80;44030;-16
2020/12/26 00:33:09;;;;;;;8.63;3.80;;;;;;;-1.66;100.00;98859.00;3694309;78;43715;-16
2020/12/26 00:38:17;;;;;;;4.07;2.80;;;;;;;-1.70;100.00;98852.14;3633731;81;44062;-16
2020/12/26 00:43:23;;;;;;;9.10;4.07;;;;;;;-1.76;100.00;98853.77;3694677;78;43411;-15
2020/12/26 00:48:30;;;;;;;7.83;3.87;;;;;;;-1.80;100.00;98846.47;3690238;78;44130;-16
2020/12/26 00:53:37;;;;;;;7.40;3.10;;;;;;;-1.86;100.00;98843.65;3698181;78;43419;-15
2020/12/26 00:58:43;;;;;;;12.33;4.67;;;;;;;-1.93;100.00;98849.29;3647180;81;44002;-16
2020/12/26 01:03:50;;;;;;;9.67;4.27;;;;;;;-2.00;100.00;98854.48;3692942;80;43726;-16
2020/12/26 01:08:58;;;;;;;8.37;3.70;;;;;;;-2.04;100.00;98854.61;3673625;80;26348;-16
2020/12/26 01:14:04;;;;;;;7.97;3.67;;;;;;;-2.12;100.00;98855.89;3711615;78;44761;-16
2020/12/26 01:19:10;;;;;;;10.57;4.40;;;;;;;-2.19;100.00;98866.73;3629701;80;42889;-16
2020/12/26 01:24:16;;;;;;;8.27;3.60;;;;;;;-2.21;100.00;98882.23;3695821;78;43995;-16
2020/12/26 01:29:22;;;;;;;8.67;3.50;;;;;;;-2.27;100.00;98879.41;3638586;80;43316;-16
2020/12/26 01:34:28;;;;;;;7.30;3.63;;;;;;;-2.27;100.00;98889.13;3701561;78;42678;-16
2020/12/26 01:39:34;;;;;;;6.43;3.30;;;;;;;-2.32;100.00;98897.25;3685016;78;42968;-16
2020/12/26 01:44:41;;;;;;;6.07;3.27;;;;;;;-2.33;100.00;98908.73;3701241;78;43579;-16
2020/12/26 01:49:47;;;;;;;8.03;3.40;;;;;;;-2.35;100.00;98897.38;3699556;78;43752;-16
2020/12/26 01:54:54;;;;;;;7.03;3.90;;;;;;;-2.36;100.00;98896.98;3693582;78;43741;-16
2020/12/26 02:00:00;;;;;;;6.73;3.37;;;;;;;-2.35;100.00;98898.70;3613669;81;43991;-16
2020/12/26 02:05:09;;;;;;;7.53;3.40;;;;;;;-2.46;100.00;98912.82;3681429;80;26349;-15
2020/12/26 02:10:16;;;;;;;8.17;3.57;;;;;;;-2.58;100.00;98911.12;3679813;78;44017;-17
2020/12/26 02:15:22;;;;;;;7.30;3.47;;;;;;;-2.65;100.00;98908.36;3675063;79;44045;-17
2020/12/26 02:20:28;;;;;;;7.30;3.43;;;;;;;-2.66;100.00;98907.96;3683321;78;44109;-17
2020/12/26 02:25:33;;;;;;;6.30;3.83;;;;;;;-2.70;100.00;98901.94;3688918;78;43720;-16
2020/12/26 02:30:41;;;;;;;5.50;3.50;;;;;;;-2.75;100.00;98903.05;3682826;78;43969;-17
2020/12/26 02:35:47;;;;;;;5.83;3.80;;;;;;;-2.81;100.00;98899.77;3698215;80;44035;-17
2020/12/26 02:40:53;;;;;;;8.70;3.80;;;;;;;-2.84;100.00;98889.83;3706504;79;44096;-16
2020/12/26 02:45:59;;;;;;;6.33;3.67;;;;;;;-2.89;100.00;98893.11;3701138;78;43131;-16
2020/12/26 02:51:05;;;;;;;6.47;3.60;;;;;;;-2.92;100.00;98895.86;3697012;80;44931;-17
2020/12/26 02:56:12;;;;;;;8.07;3.90;;;;;;;-2.96;100.00;98905.69;3706989;78;43944;-15
2020/12/26 03:01:18;;;;;;;5.70;3.47;;;;;;;-3.06;100.00;98896.01;3697087;78;44058;-16
2020/12/26 03:06:25;;;;;;;6.10;3.50;;;;;;;-3.18;100.00;98897.35;3691240;78;43715;-16
2020/12/26 03:11:30;;;;;;;8.07;3.73;;;;;;;-3.21;100.00;98895.31;3678766;78;44046;-17
2020/12/26 03:16:37;;;;;;;7.17;4.00;;;;;;;-3.30;100.00;98905.76;3623050;81;44131;-17
2020/12/26 03:21:42;;;;;;;11.47;4.30;;;;;;;-3.31;100.00;98905.36;3682258;79;44106;-16
2020/12/26 03:26:49;;;;;;;8.60;4.63;;;;;;;-3.32;100.00;98905.83;3688752;79;43984;-16
2020/12/26 03:31:55;;;;;;;8.83;4.70;;;;;;;-3.23;100.00;98907.21;3701991;78;44972;-17
2020/12/26 03:37:00;;;;;;;9.77;4.77;;;;;;;-3.10;100.00;98919.45;3689050;80;43359;-16
2020/12/26 03:42:07;;;;;;;9.30;4.73;;;;;;;-3.07;100.00;98930.31;3699088;79;44544;-15
2020/12/26 03:47:13;;;;;;;9.67;4.83;;;;;;;-3.11;100.00;98940.13;3678020;80;43310;-16
2020/12/26 03:52:18;;;;;;;9.93;5.17;;;;;;;-3.18;100.00;98951.86;3688577;79;44042;-17
2020/12/26 03:57:24;;;;;;;9.83;4.40;;;;;;;-3.23;100.00;98947.22;3677178;79;44509;-16
2020/12/26 04:02:30;;;;;;;10.63;4.70;;;;;;;-3.25;100.00;98945.97;3678629;78;43456;-16
2020/12/26 04:07:36;;;;;;;9.60;4.73;;;;;;;-3.28;100.00;98940.34;3635622;80;44503;-16
2020/12/26 04:12:42;;;;;;;9.33;5.17;;;;;;;-3.34;100.00;98937.97;3674633;79;43682;-16
2020/12/26 04:17:47;;;;;;;8.70;4.37;;;;;;;-3.33;100.00;98948.91;3617257;81;43707;-16
2020/12/26 04:22:54;;;;;;;9.97;5.00;;;;;;;-3.35;100.00;98942.83;3673471;79;43419;-16
2020/12/26 04:28:00;;;;;;;9.90;4.00;;;;;;;-3.38;100.00;98941.63;3645732;80;44500;-16
2020/12/26 04:33:07;;;;;;;11.53;4.43;;;;;;;-3.37;100.00;98945.14;3636992;80;44452;-16
2020/12/26 04:38:13;;;;;;;9.10;4.77;;;;;;;-3.39;100.00;98943.02;3641489;80;43405;-16
2020/12/26 04:43:19;;;;;;;10.50;4.90;;;;;;;-3.45;100.00;98941.02;3623321;80;43466;-16
2020/12/26 04:48:27;;;;;;;8.33;4.13;;;;;;;-3.47;100.00;98928.83;3664596;80;43452;-16
2020/12/26 04:53:35;;;;;;;9.20;4.63;;;;;;;-3.51;100.00;98927.22;3684982;79;44462;-16
2020/12/26 04:58:43;;;;;;;7.60;4.70;;;;;;;-3.47;100.00;98920.92;3678629;80;43471;-16
2020/12/26 05:03:51;;;;;;;9.13;4.57;;;;;;;-3.45;100.00;98919.09;3709979;80;44060;-16
2020/12/26 05:08:57;;;;;;;10.43;4.70;;;;;;;-3.54;100.00;98927.36;3678578;78;43373;-15
2020/12/26 05:14:08;;;;;;;11.00;4.33;;;;;;;-3.57;100.00;98923.05;3696135;80;44438;-16
2020/12/26 05:19:14;;;;;;;10.33;4.30;;;;;;;-3.58;100.00;98924.84;3709458;78;43343;-15
2020/12/26 05:24:20;;;;;;;8.43;4.63;;;;;;;-3.68;100.00;98920.85;3656975;79;43468;-15
2020/12/26 05:29:28;;;;;;;10.60;4.70;;;;;;;-3.62;100.00;98925.02;3641767;81;44465;-16
2020/12/26 05:34:35;;;;;;;9.37;4.60;;;;;;;-3.59;100.00;98935.45;3696876;79;43451;-17
2020/12/26 05:39:41;;;;;;;9.53;4.77;;;;;;;-3.54;100.00;98924.73;3697155;78;43436;-16
2020/12/26 05:44:47;;;;;;;7.73;4.30;;;;;;;-3.51;100.00;98913.61;3653533;81;44058;-17
2020/12/26 05:49:53;;;;;;;10.77;4.67;;;;;;;-3.42;100.00;98917.19;3692240;78;44685;-17
2020/12/26 05:54:59;;;;;;;11.03;4.33;;;;;;;-3.35;100.00;98900.67;3697359;78;43716;-17
2020/12/26 06:00:05;;;;;;;6.77;3.93;;;;;;;-3.27;100.00;98899.90;3678266;79;43373;-16
2020/12/26 06:05:14;;;;;;;6.43;3.57;;;;;;;-3.22;100.00;98901.02;3687452;79;26345;-16
2020/12/26 06:10:19;;;;;;;6.53;3.77;;;;;;;-3.14;100.00;98909.50;3686896;80;43170;-17
2020/12/26 06:15:28;;;;;;;10.23;3.87;;;;;;;-3.07;100.00;98907.47;3685046;78;44049;-20
2020/12/26 06:20:35;;;;;;;9.07;3.90;;;;;;;-2.98;100.00;98919.39;3661829;80;44038;-17
2020/12/26 06:25:45;;;;;;;10.30;3.50;;;;;;;-2.90;100.00;98917.31;3698483;79;43361;-17
2020/12/26 06:30:52;;;;;;;6.03;3.20;;;;;;;-2.83;100.00;98913.48;3676833;79;43717;-17
2020/12/26 06:35:59;;;;;;;6.23;3.10;;;;;;;-2.79;100.00;98916.39;3684786;80;43235;-17
2020/12/26 06:41:06;;;;;;;4.80;2.70;;;;;;;-2.72;100.00;98909.52;3631544;81;44102;-17
2020/12/26 06:46:30;;;;;;;6.23;3.03;;;;;;;-2.67;100.00;98915.48;3688039;78;43507;-25
2020/12/26 06:51:41;;;;;;;4.10;2.60;;;;;;;-2.65;100.00;98922.86;3683316;79;43443;-17
2020/12/26 06:56:50;;;;;;;6.40;2.47;;;;;;;-2.59;100.00;98918.63;3696850;80;43686;-17
2020/12/26 07:01:59;;;;;;;6.23;2.20;;;;;;;-2.56;100.00;98923.78;3670640;79;43317;-17
2020/12/26 07:07:05;;;;;;;4.93;2.30;;;;;;;-2.52;100.00;98919.22;3657032;80;43718;-19
2020/12/26 07:12:13;;;;;;;3.53;2.17;;;;;;;-2.48;100.00;98908.95;3679365;80;43404;-19
2020/12/26 07:17:28;;;;;;;4.13;2.30;;;;;;;-2.48;100.00;98911.59;3674574;79;43474;-19
2020/12/26 07:22:34;;;;;;;5.77;2.30;;;;;;;-2.52;100.00;98902.08;3632281;80;43995;-19
2020/12/26 07:27:41;;;;;;;3.83;2.10;;;;;;;-2.49;100.00;98898.00;3657370;80;44034;-19
2020/12/26 07:32:52;;;;;;;5.73;2.37;;;;;;;-2.44;100.00;98913.14;3671555;78;43498;-19
2020/12/26 07:38:02;;;;;;;5.27;2.57;;;;;;;-2.44;100.00;98903.91;3655305;80;43400;-20
2020/12/26 07:43:09;;;;;;;5.27;2.67;;;;;;;-2.42;100.00;98893.30;3666258;80;43992;-19
2020/12/26 07:48:16;;;;;;;4.60;2.80;;;;;;;-2.43;100.00;98884.52;3678728;78;44440;-19
2020/12/26 07:53:22;;;;;;;3.90;2.40;;;;;;;-2.37;100.00;98882.94;3624331;80;43458;-19
2020/12/26 07:58:27;;;;;;;6.40;2.93;;;;;;;-2.32;100.00;98893.29;3689377;79;43693;-19
2020/12/26 08:03:33;;;;;;;6.57;2.97;;;;;;;-2.31;100.00;98892.37;3706669;78;43313;-19
2020/12/26 08:08:40;;;;;;;7.57;4.10;;;;;;;-2.27;100.00;98892.60;3700557;79;44069;-19
2020/12/26 08:13:59;;;;;;;7.07;3.60;;;;;;;-2.14;100.00;98906.57;3707138;79;44108;-18
2020/12/26 08:19:06;;;;;;;9.67;5.03;;;;;;;-2.08;100.00;98907.62;3672661;79;43726;-18
2020/12/26 08:24:12;;;;;;;10.10;5.30;;;;;;;-2.03;100.00;98916.18;3706628;78;44116;-17
2020/12/26 08:29:20;;;;;;;4.33;3.00;;;;;;;-1.96;100.00;98916.77;3659031;79;44027;-18
2020/12/26 08:34:35;;;;;;;4.93;3.00;;;;;;;-1.84;100.00;98914.88;3574684;81;43694;-18
2020/12/26 08:39:43;;;;;;;5.90;3.40;;;;;;;-1.77;100.00;98911.49;3654773;81;44209;-17
2020/12/26 08:44:49;;;;;;;6.73;4.20;;;;;;;-1.64;100.00;98920.56;3656850;80;43718;-18
2020/12/26 08:49:55;;;;;;;5.80;4.07;;;;;;;-1.50;100.00;98911.97;3630301;81;42957;-19
2020/12/26 08:55:07;;;;;;;6.77;3.87;;;;;;;-1.37;100.00;98918.87;3596051;81;43458;-19
2020/12/26 09:00:23;;;;;;;4.33;2.73;;;;;;;-1.26;100.00;98922.30;3638582;81;43718;-18
2020/12/26 09:05:31;;;;;;;4.07;3.00;;;;;;;-1.14;100.00;98919.06;3717185;80;43415;-19
2020/12/26 09:10:38;;;;;;;10.00;3.70;;;;;;;-1.05;100.00;98934.95;3702067;80;44065;-19
2020/12/26 09:15:56;;;;;;;8.20;4.63;;;;;;;-0.97;100.00;98937.22;3693843;80;44063;-19
2020/12/26 09:21:03;;;;;;;8.70;4.97;;;;;;;-0.90;100.00;98940.42;3716567;79;43403;-18
2020/12/26 09:26:14;;;;;;;9.47;4.23;;;;;;;-0.79;100.00;98942.06;3712339;78;43467;-19
2020/12/26 09:31:23;;;;;;;7.23;4.10;;;;;;;-0.76;100.00;98947.18;3698949;79;43990;-19
2020/12/26 09:36:28;;;;;;;6.80;3.97;;;;;;;-0.79;100.00;98948.20;3711417;79;44456;-18
2020/12/26 09:41:44;;;;;;;7.50;4.17;;;;;;;-0.67;100.00;98950.71;3628756;81;42617;-18
2020/12/26 09:46:57;;;;;;;13.33;4.93;;;;;;;-0.67;100.00;98950.71;3690139;78;43730;-19
2020/12/26 09:52:03;;;;;;;11.17;4.40;;;;;;;-0.56;100.00;98950.63;3695495;78;43694;-19
2020/12/26 09:57:09;;;;;;;8.10;4.23;;;;;;;-0.48;100.00;98954.61;3592964;81;44014;-19
2020/12/26 10:02:15;;;;;;;14.47;5.60;;;;;;;-0.49;100.00;98958.19;3675379;78;44033;-19
2020/12/26 10:07:23;;;;;;;8.27;3.73;;;;;;;-0.45;100.00;98962.84;3694964;79;43397;-19
2020/12/26 10:12:29;;;;;;;5.83;3.43;;;;;;;-0.43;100.00;98957.02;3652084;81;44037;-18
2020/12/26 10:17:35;;;;;;;5.93;3.60;;;;;;;-0.34;100.00;98954.34;3702309;78;44023;-19
2020/12/26 10:22:40;;;;;;;6.20;3.70;;;;;;;-0.26;100.00;98946.00;3710910;78;44480;-19
2020/12/26 10:27:46;;;;;;;8.30;3.57;;;;;;;-0.16;100.00;98948.55;3658853;80;43425;-19
2020/12/26 10:32:52;;;;;;;6.40;3.90;;;;;;;-0.06;100.00;98937.86;3705838;78;44090;-18
2020/12/26 10:37:59;;;;;;;8.10;3.90;;;;;;;0.03;100.00;98940.98;3674591;79;44077;-19
2020/12/26 10:43:05;;;;;;;8.53;3.97;;;;;;;0.09;100.00;98924.73;3703260;80;43628;-19
2020/12/26 10:48:11;;;;;;;7.73;4.00;;;;;;;0.21;100.00;98921.91;3673914;79;44131;-19
2020/12/26 10:53:18;;;;;;;6.77;3.70;;;;;;;0.27;100.00;98922.89;3717924;78;43680;-20
2020/12/26 10:58:24;;;;;;;5.17;3.53;;;;;;;0.33;100.00;98918.59;3711928;79;43689;-18
2020/12/26 11:03:29;;;;;;;6.47;3.27;;;;;;;0.44;100.00;98920.18;3654045;79;43476;-18
2020/12/26 11:08:35;;;;;;;7.00;3.70;;;;;;;0.51;100.00;98917.17;3716371;79;43365;-18
2020/12/26 11:13:41;;;;;;;7.27;3.73;;;;;;;0.53;100.00;98912.65;3689731;80;43996;-18
2020/12/26 11:18:47;;;;;;;9.57;4.33;;;;;;;0.53;100.00;98908.67;3645625;81;43626;-18
2020/12/26 11:23:52;;;;;;;8.03;4.00;;;;;;;0.59;100.00;98914.48;3648556;80;43382;-18
2020/12/26 11:29:00;;;;;;;10.23;5.30;;;;;;;0.57;100.00;98908.89;3636358;81;43183;-18
2020/12/26 11:34:06;;;;;;;15.53;6.00;;;;;;;0.66;100.00;98901.73;3707215;78;44077;-18
2020/12/26 11:39:11;;;;;;;8.20;4.53;;;;;;;0.74;100.00;98899.50;3706490;79;43331;-19
2020/12/26 11:44:17;;;;;;;11.23;4.77;;;;;;;0.76;100.00;98900.77;3672713;79;44095;-18
2020/12/26 11:49:23;;;;;;;7.50;4.30;;;;;;;0.81;100.00;98893.38;3686018;79;44197;-18
2020/12/26 11:54:29;;;;;;;7.90;4.40;;;;;;;0.82;100.00;98885.80;3641620;80;44034;-18
2020/12/26 11:59:35;;;;;;;9.93;5.47;;;;;;;0.88;100.00;98885.44;3695340;80;43317;-18
2020/12/26 12:04:40;;;;;;;9.63;5.77;;;;;;;0.96;100.00;98882.83;3668913;78;43983;-18
2020/12/26 12:09:46;;;;;;;12.40;6.53;;;;;;;1.06;100.00;98874.71;3677978;80;42772;-19
2020/12/26 12:14:52;;;;;;;11.40;6.10;;;;;;;1.12;100.00;98862.88;3681629;80;44036;-19
2020/12/26 12:19:57;;;;;;;11.07;6.10;;;;;;;1.16;100.00;98857.30;3677454;80;43353;-19
2020/12/26 12:25:03;;;;;;;11.47;6.00;;;;;;;1.20;100.00;98843.37;3685112;79;43468;-19
2020/12/26 12:30:09;;;;;;;11.67;6.13;;;;;;;1.29;100.00;98844.63;3632076;81;44186;-19
2020/12/26 12:35:15;;;;;;;12.57;6.40;;;;;;;1.25;100.00;98837.78;3665470;79;43714;-19
2020/12/26 12:40:21;;;;;;;12.87;5.97;;;;;;;1.33;100.00;98820.45;3660803;79;44028;-18
2020/12/26 12:45:28;;;;;;;11.53;6.37;;;;;;;1.41;100.00;98822.65;3681106;80;43392;-19
2020/12/26 12:50:33;;;;;;;11.57;6.27;;;;;;;1.52;100.00;98814.04;3628975;81;43711;-19
2020/12/26 12:55:39;;;;;;;12.43;6.07;;;;;;;1.48;100.00;98805.38;3675458;79;43443;-18
2020/12/26 13:00:45;;;;;;;9.50;5.33;;;;;;;1.49;100.00;98789.83;3671720;79;44097;-19
2020/12/26 13:05:51;;;;;;;11.17;5.33;;;;;;;1.48;100.00;98783.30;3683649;80;44031;-18
2020/12/26 13:10:56;;;;;;;9.03;4.90;;;;;;;1.57;100.00;98784.05;3607285;80;44082;-19
2020/12/26 13:16:02;;;;;;;9.57;4.63;;;;;;;1.60;100.00;98777.69;3675346;80;43318;-18
2020/12/26 13:21:08;;;;;;;7.10;3.87;;;;;;;1.62;100.00;98785.09;3619405;81;44069;-18
2020/12/26 13:26:14;;;;;;;6.67;4.10;;;;;;;1.67;100.00;98784.34;3682059;79;42686;-18
2020/12/26 13:31:27;;;;;;;8.63;4.03;;;;;;;1.65;100.00;98779.59;3677858;80;44710;-19
2020/12/26 13:36:32;;;;;;;6.17;4.33;;;;;;;1.73;100.00;98773.81;3634061;81;44061;-18
2020/12/26 13:41:38;;;;;;;7.60;4.00;;;;;;;1.73;100.00;98761.86;3662733;79;43596;-18
2020/12/26 13:46:46;;;;;;;7.23;4.00;;;;;;;1.76;100.00;98760.34;3620231;80;43253;-18
2020/12/26 13:51:52;;;;;;;6.60;3.73;;;;;;;1.78;100.00;98744.67;3674961;79;44022;-18
2020/12/26 13:56:58;;;;;;;5.73;3.77;;;;;;;1.71;100.00;98739.84;3677669;79;43463;-18
2020/12/26 14:02:04;;;;;;;6.20;3.83;;;;;;;1.69;100.00;98729.33;3667364;80;43677;-18
2020/12/26 14:07:10;;;;;;;7.47;4.23;;;;;;;1.74;100.00;98720.57;3670069;79;44020;-18
2020/12/26 14:12:16;;;;;;;10.00;4.60;;;;;;;1.75;100.00;98722.28;3665484;80;43402;-18
2020/12/26 14:17:21;;;;;;;10.10;4.47;;;;;;;1.65;100.00;98719.34;3702099;78;43457;-18
2020/12/26 14:22:27;;;;;;;8.30;4.70;;;;;;;1.55;100.00;98714.25;3675042;79;44087;-18
2020/12/26 14:27:33;;;;;;;6.63;3.80;;;;;;;1.54;100.00;98715.20;3678537;80;43681;-18
2020/12/26 14:32:40;;;;;;;8.13;4.00;;;;;;;1.47;100.00;98709.41;3628535;80;43531;-18
2020/12/26 14:37:46;;;;;;;7.27;3.73;;;;;;;1.46;100.00;98710.39;3697352;79;44170;-18
2020/12/26 14:42:53;;;;;;;7.13;3.90;;;;;;;1.38;100.00;98711.33;3683971;80;44077;-18
2020/12/26 14:48:00;;;;;;;9.07;4.33;;;;;;;1.33;100.00;98699.67;3687761;78;43673;-18
2020/12/26 14:53:06;;;;;;;7.33;4.00;;;;;;;1.31;100.00;98694.09;3683976;79;43423;-18
2020/12/26 14:58:12;;;;;;;7.83;3.93;;;;;;;1.26;100.00;98685.55;3686157;80;43714;-18
2020/12/26 15:03:17;;;;;;;7.73;4.10;;;;;;;1.23;100.00;98674.66;3695205;79;43751;-18
2020/12/26 15:08:23;;;;;;;11.07;4.33;;;;;;;1.09;100.00;98678.17;3674197;80;44054;-18
2020/12/26 15:13:28;;;;;;;10.10;4.40;;;;;;;1.05;100.00;98677.98;3684405;79;44097;-18
2020/12/26 15:18:34;;;;;;;7.93;4.20;;;;;;;0.98;100.00;98684.13;3680733;78;43667;-18
2020/12/26 15:23:40;;;;;;;6.93;3.70;;;;;;;0.88;100.00;98679.02;3635449;80;44699;-18
2020/12/26 15:28:46;;;;;;;7.37;3.77;;;;;;;0.82;100.00;98674.94;3686270;79;43405;-18
2020/12/26 15:33:51;;;;;;;6.30;3.90;;;;;;;0.84;100.00;98666.42;3663169;80;44098;-18
2020/12/26 15:38:57;;;;;;;7.73;4.50;;;;;;;0.85;100.00;98658.84;3686625;80;43028;-18
2020/12/26 15:44:04;;;;;;;7.07;4.27;;;;;;;0.86;100.00;98656.58;3689733;80;44038;-18
2020/12/26 15:49:12;;;;;;;8.20;4.30;;;;;;;0.80;100.00;98652.95;3684682;79;44406;-18
2020/12/26 15:54:19;;;;;;;8.00;4.70;;;;;;;0.78;100.00;98642.91;3728629;78;42758;-18
2020/12/26 15:59:25;;;;;;;8.60;5.10;;;;;;;0.76;100.00;98654.11;3630108;80;43457;-18
2020/12/26 16:04:31;;;;;;;8.93;5.53;;;;;;;0.73;100.00;98637.05;3742061;78;44052;-18
2020/12/26 16:09:42;;;;;;;8.20;5.37;;;;;;;0.65;100.00;98632.70;3771258;77;44000;-18
2020/12/26 16:14:45;;;;;;;8.37;5.43;;;;;;;0.51;100.00;98621.13;3772140;78;43044;-18
2020/12/26 16:19:53;;;;;;;8.90;5.40;;;;;;;0.58;100.00;98625.59;3755407;78;44046;-18
2020/12/26 16:24:59;;;;;;;9.37;5.70;;;;;;;0.46;100.00;98615.23;3685141;78;44043;-18
2020/12/26 16:30:12;;;;;;;11.83;5.70;;;;;;;0.43;100.00;98619.39;3770518;77;43386;-18
2020/12/26 16:35:15;;;;;;;11.80;6.17;;;;;;;0.33;100.00;98624.41;3693420;80;43421;-18
2020/12/26 16:40:22;;;;;;;11.40;6.73;;;;;;;0.26;100.00;98614.64;3767651;78;44023;-18
2020/12/26 16:45:28;;;;;;;10.60;6.27;;;;;;;0.17;100.00;98619.63;3766516;78;44006;-18
2020/12/26 16:50:34;;;;;;;12.30;7.47;;;;;;;0.11;100.00;98611.56;3693418;80;43479;-18
2020/12/26 16:55:40;;;;;;;11.07;6.70;;;;;;;0.06;100.00;98604.38;3769356;77;44441;-18
2020/12/26 17:00:45;;;;;;;14.63;7.93;;;;;;;-0.07;100.00;98603.78;3695984;80;43480;-19
2020/12/26 17:05:51;;;;;;;11.83;7.30;;;;;;;-0.08;100.00;98591.92;3746158;78;44039;-18
2020/12/26 17:10:56;;;;;;;11.83;7.37;;;;;;;-0.10;100.00;98586.73;3723207;79;43698;-19
2020/12/26 17:16:02;;;;;;;14.57;7.70;;;;;;;-0.16;100.00;98577.80;3649081;81;43110;-18
2020/12/26 17:21:09;;;;;;;13.43;8.20;;;;;;;-0.22;100.00;98574.20;3727879;79;43462;-19
2020/12/26 17:26:17;;;;;;;13.37;7.83;;;;;;;-0.25;100.00;98557.17;3640216;80;43414;-18
2020/12/26 17:31:25;;;;;;;14.13;7.67;;;;;;;-0.23;100.00;98544.70;3717293;79;44068;-19
2020/12/26 17:36:31;;;;;;;13.90;7.47;;;;;;;-0.26;100.00;98546.20;3709858;78;44117;-18
2020/12/26 17:41:37;;;;;;;15.10;8.17;;;;;;;-0.33;100.00;98546.56;3640976;80;44075;-19
2020/12/26 17:46:44;;;;;;;16.10;8.50;;;;;;;-0.32;100.00;98543.44;3726895;78;44406;-18
2020/12/26 17:51:50;;;;;;;16.40;8.17;;;;;;;-0.29;100.00;98540.61;3649578;81;43425;-18
2020/12/26 17:56:59;;;;;;;14.00;8.07;;;;;;;-0.23;100.00;98544.70;3732511;78;44547;-18
2020/12/26 18:02:05;;;;;;;21.00;8.53;;;;;;;-0.18;100.00;98541.32;3683533;80;43476;-18
2020/12/26 18:07:11;;;;;;;15.27;8.20;;;;;;;-0.13;100.00;98528.64;3726104;78;44026;-18
2020/12/26 18:12:16;;;;;;;13.33;7.87;;;;;;;-0.07;100.00;98520.80;3729476;78;44070;-18
2020/12/26 18:17:22;;;;;;;16.20;7.63;;;;;;;-0.04;100.00;98509.55;3636423;80;44260;-18
2020/12/26 18:22:28;;;;;;;14.90;7.83;;;;;;;0.03;100.00;98507.87;3723014;79;42724;-18
2020/12/26 18:27:35;;;;;;;15.80;7.40;;;;;;;0.06;100.00;98503.23;3712547;78;44628;-18
2020/12/26 18:32:41;;;;;;;13.83;8.13;;;;;;;0.07;100.00;98500.09;3725881;78;43366;-18
2020/12/26 18:37:47;;;;;;;17.50;7.33;;;;;;;0.10;100.00;98493.30;3710114;80;44050;-18
2020/12/26 18:42:53;;;;;;;13.30;7.90;;;;;;;0.10;100.00;98483.57;3728214;79;44068;-18
2020/12/26 18:47:59;;;;;;;13.73;7.70;;;;;;;0.08;100.00;98471.34;3635788;81;44055;-18
2020/12/26 18:53:04;;;;;;;12.70;6.80;;;;;;;0.06;100.00;98450.25;3647246;80;43469;-18
2020/12/26 18:58:10;;;;;;;15.37;7.83;;;;;;;0.08;100.00;98443.53;3725590;79;44166;-19
2020/12/26 19:03:16;;;;;;;14.87;7.77;;;;;;;0.00;100.00;98424.16;3645210;80;43681;-18
2020/12/26 19:08:22;;;;;;;13.23;7.43;;;;;;;-0.06;100.00;98421.39;3731151;78;43036;-18
2020/12/26 19:13:28;;;;;;;12.07;7.40;;;;;;;-0.14;100.00;98429.45;3650708;81;44067;-18
2020/12/26 19:18:34;;;;;;;11.83;7.00;;;;;;;-0.17;100.00;98417.22;3633142;80;44060;-18
2020/12/26 19:23:40;;;;;;;13.30;7.00;;;;;;;-0.27;100.00;98424.02;3644204;81;43345;-18
2020/12/26 19:28:45;;;;;;;12.60;6.80;;;;;;;-0.32;100.00;98427.82;3716195;79;44058;-18
2020/12/26 19:33:53;;;;;;;11.17;6.53;;;;;;;-0.33;100.00;98422.59;3645149;81;44107;-18
2020/12/26 19:38:59;;;;;;;13.30;7.43;;;;;;;-0.29;100.00;98418.00;3718420;78;44109;-18
2020/12/26 19:44:04;;;;;;;15.33;8.77;;;;;;;-0.32;100.00;98417.23;3728444;79;43426;-18
2020/12/26 19:49:10;;;;;;;13.13;8.00;;;;;;;-0.26;100.00;98421.30;3732453;79;44018;-18
2020/12/26 19:54:16;;;;;;;12.27;7.37;;;;;;;-0.21;100.00;98399.84;3710343;80;44051;-18
2020/12/26 19:59:23;;;;;;;14.10;7.93;;;;;;;-0.26;100.00;98391.31;3634319;80;43434;-18
2020/12/26 20:04:32;;;;;;;16.63;7.40;;;;;;;-0.34;100.00;98380.73;3730812;79;43698;-18
2020/12/26 20:09:38;;;;;;;13.47;8.07;;;;;;;-0.42;100.00;98388.30;3772278;77;44801;-16
2020/12/26 20:14:43;;;;;;;12.10;7.43;;;;;;;-0.42;100.00;98380.35;3693986;80;44629;-17
2020/12/26 20:19:49;;;;;;;9.93;6.10;;;;;;;-0.42;100.00;98368.45;3770199;77;44039;-17
2020/12/26 20:24:56;;;;;;;10.20;6.50;;;;;;;-0.45;100.00;98375.23;3692426;79;43296;-17
2020/12/26 20:30:01;;;;;;;9.60;5.90;;;;;;;-0.44;100.00;98370.33;3771770;78;43102;-17
2020/12/26 20:35:07;;;;;;;9.93;6.60;;;;;;;-0.39;100.00;98371.37;3764706;78;43349;-17
2020/12/26 20:40:13;;;;;;;11.70;6.27;;;;;;;-0.32;100.00;98362.96;3776250;77;44114;-18
2020/12/26 20:45:19;;;;;;;9.70;6.07;;;;;;;-0.25;100.00;98356.82;3776242;77;44678;-18
2020/12/26 20:50:25;;;;;;;9.60;5.90;;;;;;;-0.17;100.00;98353.67;3772246;78;43656;-18
2020/12/26 20:55:32;;;;;;;8.87;5.33;;;;;;;-0.09;100.00;98348.77;3767575;78;44051;-18
2020/12/26 21:00:40;;;;;;;9.60;5.47;;;;;;;0.02;100.00;98345.43;3760796;78;44007;-18
2020/12/26 21:05:47;;;;;;;8.43;5.43;;;;;;;0.08;100.00;98337.11;3692386;79;43698;-18
2020/12/26 21:10:55;;;;;;;11.17;5.43;;;;;;;0.15;100.00;98329.63;3776689;77;43694;-18
2020/12/26 21:16:01;;;;;;;9.30;5.17;;;;;;;0.20;100.00;98316.92;3783453;77;44183;-19
2020/12/26 21:21:07;;;;;;;7.53;5.03;;;;;;;0.26;100.00;98316.55;3730038;78;44022;-19
2020/12/26 21:26:15;;;;;;;8.30;4.87;;;;;;;0.37;100.00;98299.93;3793386;77;43649;-19
2020/12/26 21:31:24;;;;;;;7.17;4.93;;;;;;;0.39;100.00;98283.95;3784843;77;43730;-19
2020/12/26 21:36:35;;;;;;;8.23;4.90;;;;;;;0.52;100.00;98263.64;3725672;78;43999;-19
2020/12/26 21:41:43;;;;;;;7.30;4.87;;;;;;;0.57;100.00;98269.47;3783801;78;44077;-19
2020/12/26 21:46:49;;;;;;;8.80;4.40;;;;;;;0.67;100.00;98279.45;3696188;78;43452;-19
2020/12/26 21:51:55;;;;;;;8.00;4.30;;;;;;;0.67;100.00;98255.13;3790187;77;44251;-19
2020/12/26 21:57:02;;;;;;;6.63;4.13;;;;;;;0.74;100.00;98248.94;3731625;79;44105;-19
2020/12/26 22:02:08;;;;;;;7.13;4.80;;;;;;;0.78;100.00;98239.80;3793078;77;43243;-19
2020/12/26 22:07:14;;;;;;;7.83;4.90;;;;;;;0.87;100.00;98239.66;3728132;78;44422;-19
2020/12/26 22:12:20;;;;;;;8.23;4.67;;;;;;;0.85;100.00;98234.48;3792541;78;44065;-19
2020/12/26 22:17:26;;;;;;;6.97;4.90;;;;;;;0.88;100.00;98230.27;3793415;77;43379;-19
2020/12/26 22:22:32;;;;;;;7.57;5.23;;;;;;;0.92;100.00;98223.81;3729568;79;43458;-19
2020/12/26 22:27:38;;;;;;;8.43;4.80;;;;;;;0.98;100.00;98205.79;3792482;77;43713;-19
2020/12/26 22:32:45;;;;;;;7.50;5.17;;;;;;;0.96;100.00;98190.45;3794106;78;43994;-19
2020/12/26 22:37:51;;;;;;;10.60;5.70;;;;;;;0.99;100.00;98174.33;3731306;78;43488;-20
2020/12/26 22:42:57;;;;;;;7.37;4.93;;;;;;;1.01;100.00;98165.30;3791584;78;43354;-19
2020/12/26 22:48:04;;;;;;;9.43;5.27;;;;;;;1.00;100.00;98155.64;3718013;78;44141;-19
2020/12/26 22:53:10;;;;;;;8.70;5.00;;;;;;;0.95;100.00;98132.55;3783671;78;44812;-19
2020/12/26 22:58:16;;;;;;;7.80;4.20;;;;;;;0.99;100.00;98130.56;3793588;77;43971;-19
2020/12/26 23:03:22;;;;;;;7.30;4.33;;;;;;;0.93;100.00;98127.86;3727804;78;44108;-19
2020/12/26 23:08:28;;;;;;;4.67;3.30;;;;;;;0.94;100.00;98115.44;3755330;77;43484;-19
2020/12/26 23:13:34;;;;;;;5.93;3.90;;;;;;;0.87;100.00;98105.73;3642255;80;44073;-19
2020/12/26 23:18:40;;;;;;;7.00;4.40;;;;;;;0.89;100.00;98115.27;3716920;78;44059;-19
2020/12/26 23:23:46;;;;;;;6.47;3.80;;;;;;;0.87;100.00;98088.49;3636373;80;44002;-19
2020/12/26 23:28:53;;;;;;;5.93;3.70;;;;;;;0.83;100.00;98075.94;3730056;79;43359;-19
2020/12/26 23:33:59;;;;;;;6.13;3.43;;;;;;;0.76;100.00;98058.28;3651298;81;43378;-19
2020/12/26 23:39:05;;;;;;;4.73;3.13;;;;;;;0.72;100.00;98051.98;3729615;79;44064;-19
2020/12/26 23:44:10;;;;;;;4.40;3.00;;;;;;;0.67;100.00;98036.40;3728480;78;44552;-19
2020/12/26 23:49:16;;;;;;;5.37;3.33;;;;;;;0.63;100.00;98027.45;3730637;78;43766;-19